createdAt,value
2017-11-25T17:48:19.399Z,12.65
2017-11-25T17:50:48.940Z,9.50
2017-11-25T17:53:18.423Z,11.93
2017-11-25T17:55:48.005Z,12.95
2017-11-25T17:58:17.473Z,14.32
2017-11-25T18:00:47.003Z,14.73
2017-11-25T18:03:16.490Z,15.77
2017-11-25T18:05:46.066Z,14.77
2017-11-25T18:08:15.596Z,17.62
2017-11-25T18:10:45.186Z,16.67
2017-11-25T18:13:14.692Z,17.10
2017-11-25T18:15:44.207Z,17.80
2017-11-25T18:18:13.717Z,20.57
2017-11-25T18:20:43.246Z,22.77
2017-11-25T18:23:12.783Z,25.13
2017-11-25T18:25:42.316Z,26.20
2017-11-25T18:28:11.822Z,24.60
2017-11-25T18:30:41.358Z,26.47
2017-11-25T18:33:10.863Z,27.60
2017-11-25T18:35:40.387Z,28.23
2017-11-25T18:38:09.942Z,29.60
2017-11-25T18:40:39.493Z,29.23
2017-11-25T18:43:09.006Z,28.77
2017-11-25T18:45:38.545Z,28.53
2017-11-25T18:48:08.061Z,27.80
2017-11-25T18:53:15.061Z,28.97
2017-11-25T18:55:44.588Z,27.23
2017-11-25T18:58:14.143Z,27.37
2017-11-25T19:00:43.644Z,28.00
2017-11-25T19:03:13.159Z,25.73
2017-11-25T19:05:42.684Z,28.03
2017-11-25T19:08:12.252Z,27.83
2017-11-25T19:10:41.733Z,27.17
2017-11-25T19:13:11.352Z,24.40
2017-11-25T19:15:40.924Z,24.43
2017-11-25T19:18:10.445Z,24.13
2017-11-25T19:20:39.995Z,22.40
2017-11-25T19:23:09.527Z,25.00
2017-11-25T19:25:39.017Z,24.53
2017-11-25T19:28:08.550Z,24.43
2017-11-25T19:30:38.024Z,23.63
2017-11-25T19:33:07.573Z,22.63
2017-11-25T19:35:37.057Z,23.70
2017-11-25T19:38:06.615Z,22.00
2017-11-25T19:40:36.141Z,23.20
2017-11-25T19:43:05.695Z,21.37
2017-11-25T19:45:35.194Z,21.20
2017-11-25T19:48:04.749Z,20.40
2017-11-25T19:50:34.246Z,20.07
2017-11-25T19:53:03.805Z,19.50
2017-11-25T19:55:33.343Z,19.00
2017-11-25T19:58:02.867Z,18.73
2017-11-25T20:00:32.400Z,18.70
2017-11-25T20:03:02.425Z,17.30
2017-11-25T20:05:32.006Z,18.70
2017-11-25T20:08:01.544Z,17.50
2017-11-25T20:10:31.136Z,16.10
2017-11-25T20:13:00.658Z,16.57
2017-11-25T20:15:30.203Z,15.57
2017-11-25T20:17:59.708Z,16.80
2017-11-25T20:20:29.254Z,16.30
2017-11-25T20:22:58.810Z,15.90
2017-11-25T20:25:28.366Z,15.77
2017-11-25T20:27:57.893Z,15.00
2017-11-25T20:30:27.425Z,15.47
2017-11-25T20:32:56.978Z,15.63
2017-11-25T20:35:26.476Z,15.10
2017-11-25T20:37:56.036Z,14.07
2017-11-25T20:40:25.572Z,13.93
2017-11-25T20:42:55.084Z,14.63
2017-11-25T20:45:24.602Z,14.77
2017-11-25T20:47:54.132Z,15.03
2017-11-25T20:50:23.640Z,13.50
2017-11-25T20:52:53.157Z,12.60
2017-11-25T20:55:22.697Z,13.10
2017-11-25T20:57:52.217Z,12.17
2017-11-25T21:00:21.758Z,11.73
2017-11-25T21:02:51.258Z,10.50
2017-11-25T21:05:20.768Z,11.40
2017-11-25T21:07:50.270Z,10.10
2017-11-25T21:10:19.778Z,10.00
2017-11-25T21:12:49.281Z,8.30
2017-11-25T21:15:18.824Z,8.03
2017-11-25T21:17:48.309Z,7.63
2017-11-25T21:20:17.850Z,8.00
2017-11-25T21:22:47.331Z,7.23
2017-11-25T21:25:16.855Z,5.90
2017-11-25T21:27:46.390Z,7.25
2017-11-25T21:30:15.929Z,7.15
2017-11-25T21:32:45.451Z,6.40
2017-11-25T21:35:15.012Z,6.85
2017-11-25T21:37:44.509Z,6.82
2017-11-25T21:40:14.038Z,6.40
2017-11-25T21:42:43.531Z,6.50
2017-11-25T21:45:13.071Z,6.45
2017-11-25T21:47:42.626Z,6.22
2017-11-25T21:50:12.111Z,6.78
2017-11-25T21:52:41.621Z,6.93
2017-11-25T21:55:11.135Z,6.97
2017-11-25T21:57:40.663Z,5.10
2017-11-25T22:00:10.173Z,4.82
2017-11-25T22:02:39.717Z,6.43
2017-11-25T22:05:09.200Z,6.12
2017-11-25T22:07:38.792Z,5.60
2017-11-25T22:10:08.261Z,5.62
2017-11-25T22:12:37.787Z,5.90
2017-11-25T22:15:07.289Z,5.93
2017-11-25T22:17:36.776Z,6.15
2017-11-25T22:20:06.333Z,6.12
2017-11-25T22:22:35.803Z,6.20
2017-11-25T22:25:05.358Z,5.53
2017-11-25T22:27:34.840Z,6.22
2017-11-25T22:30:04.375Z,5.20
2017-11-25T22:32:33.848Z,5.55
2017-11-25T22:35:03.399Z,4.93
2017-11-25T22:37:32.931Z,5.93
2017-11-25T22:40:02.561Z,4.97
2017-11-25T22:42:32.027Z,4.87
2017-11-25T22:45:01.582Z,5.45
2017-11-25T22:47:31.093Z,4.45
2017-11-25T22:50:00.584Z,4.90
2017-11-25T22:52:30.091Z,5.15
2017-11-25T22:54:59.620Z,5.10
2017-11-25T22:57:29.078Z,4.85
2017-11-25T22:59:58.644Z,4.75
2017-11-25T23:02:28.138Z,4.70
2017-11-25T23:04:57.637Z,4.90
2017-11-25T23:07:27.198Z,5.05
2017-11-25T23:09:56.725Z,4.60
2017-11-25T23:12:26.222Z,5.05
2017-11-25T23:14:55.758Z,4.85
2017-11-25T23:17:25.277Z,5.45
2017-11-25T23:19:54.820Z,5.60
2017-11-25T23:22:24.328Z,5.20
2017-11-25T23:24:53.811Z,5.90
2017-11-25T23:27:23.321Z,4.85
2017-11-25T23:29:52.803Z,4.70
2017-11-25T23:32:22.323Z,4.68
2017-11-25T23:34:51.812Z,4.22
2017-11-25T23:37:21.339Z,5.15
2017-11-25T23:39:50.857Z,4.32
2017-11-25T23:42:20.345Z,3.83
2017-11-25T23:44:49.865Z,4.70
2017-11-25T23:47:19.441Z,4.72
2017-11-25T23:49:48.978Z,4.90
2017-11-25T23:52:18.546Z,4.15
2017-11-25T23:54:48.066Z,4.45
2017-11-25T23:57:17.570Z,4.93
2017-11-25T23:59:47.053Z,4.35
